createdAt,value
2018-11-12T00:00:09.124Z,1011.27
2018-11-12T00:01:09.146Z,1011.27
2018-11-12T00:02:09.159Z,1011.23
2018-11-12T00:04:09.195Z,1011.2
2018-11-12T00:05:09.217Z,1011.2
2018-11-12T00:06:09.234Z,1011.18
2018-11-12T00:07:09.322Z,1011.16
2018-11-12T00:08:09.265Z,1011.18
2018-11-12T00:09:09.282Z,1011.22
2018-11-12T00:10:09.306Z,1011.18
2018-11-12T00:11:09.318Z,1011.15
2018-11-12T00:12:09.340Z,1011.17
2018-11-12T00:13:09.356Z,1011.08
2018-11-12T00:14:09.376Z,1011.09
2018-11-12T00:15:09.388Z,1011.12
2018-11-12T00:16:09.405Z,1011.11
2018-11-12T00:17:09.430Z,1011.14
2018-11-12T00:19:09.464Z,1011.14
2018-11-12T00:20:09.477Z,1011.14
2018-11-12T00:21:09.500Z,1011.15
2018-11-12T00:22:09.514Z,1011.15
2018-11-12T00:23:09.533Z,1011.19
2018-11-12T00:24:09.550Z,1011.18
2018-11-12T00:25:09.569Z,1011.19
2018-11-12T00:26:09.584Z,1011.17
2018-11-12T00:27:09.605Z,1011.23
2018-11-12T00:28:09.618Z,1011.26
2018-11-12T00:29:09.640Z,1011.24
2018-11-12T00:30:09.655Z,1011.26
2018-11-12T00:31:09.676Z,1011.28
2018-11-12T00:32:09.689Z,1011.26
2018-11-12T00:33:09.708Z,1011.25
2018-11-12T00:34:09.725Z,1011.24
2018-11-12T00:35:09.754Z,1011.27
2018-11-12T00:36:09.764Z,1011.29
2018-11-12T00:37:09.778Z,1011.3
2018-11-12T00:38:09.800Z,1011.38
2018-11-12T00:39:09.813Z,1011.4
2018-11-12T00:40:09.835Z,1011.41
2018-11-12T00:41:09.848Z,1011.38
2018-11-12T00:42:09.870Z,1011.31
2018-11-12T00:43:09.888Z,1011.29
2018-11-12T00:44:09.902Z,1011.25
2018-11-12T00:45:09.923Z,1011.31
2018-11-12T00:46:09.937Z,1011.33
2018-11-12T00:47:09.958Z,1011.36
2018-11-12T00:48:09.973Z,1011.4
2018-11-12T00:49:09.993Z,1011.49
2018-11-12T00:51:10.026Z,1011.85
2018-11-12T00:52:10.049Z,1012.01
2018-11-12T00:53:10.062Z,1012.1
2018-11-12T00:54:10.085Z,1012.11
2018-11-12T00:55:10.101Z,1012.06
2018-11-12T00:56:10.118Z,1011.88
2018-11-12T00:57:10.133Z,1011.77
2018-11-12T00:58:10.154Z,1011.74
2018-11-12T00:59:10.171Z,1011.74
2018-11-12T01:00:10.189Z,1011.7
2018-11-12T01:01:10.202Z,1011.69
2018-11-12T01:02:10.224Z,1011.82
2018-11-12T01:03:10.239Z,1011.93
2018-11-12T01:04:10.279Z,1011.91
2018-11-12T01:05:10.274Z,1011.9
2018-11-12T01:07:10.314Z,1011.84
2018-11-12T01:08:10.330Z,1011.85
2018-11-12T01:09:10.348Z,1011.84
2018-11-12T01:10:10.363Z,1011.85
2018-11-12T01:11:10.383Z,1011.84
2018-11-12T01:12:10.413Z,1011.88
2018-11-12T01:13:10.419Z,1011.87
2018-11-12T01:14:10.433Z,1011.86
2018-11-12T01:15:10.454Z,1011.89
2018-11-12T01:16:10.524Z,1011.91
2018-11-12T01:17:10.485Z,1011.82
2018-11-12T01:18:10.509Z,1011.83
2018-11-12T01:19:10.526Z,1011.79
2018-11-12T01:20:10.544Z,1011.8
2018-11-12T01:21:10.562Z,1011.83
2018-11-12T01:23:10.597Z,1011.79
2018-11-12T01:24:10.616Z,1011.88
2018-11-12T01:25:10.642Z,1011.83
2018-11-12T01:26:10.646Z,1011.81
2018-11-12T01:27:10.664Z,1011.85
2018-11-12T01:28:10.687Z,1011.8
2018-11-12T01:29:10.721Z,1011.77
2018-11-12T01:30:10.724Z,1011.69
2018-11-12T01:31:10.736Z,1011.72
2018-11-12T01:32:10.758Z,1011.74
2018-11-12T01:33:10.770Z,1011.83
2018-11-12T01:34:10.790Z,1011.81
2018-11-12T01:35:10.812Z,1011.81
2018-11-12T01:36:10.830Z,1011.8
2018-11-12T01:37:10.851Z,1011.79
2018-11-12T01:39:10.883Z,1011.82
2018-11-12T01:40:10.897Z,1011.78
2018-11-12T01:41:10.918Z,1011.84
2018-11-12T01:42:10.967Z,1011.88
2018-11-12T01:43:10.955Z,1011.91
2018-11-12T01:44:10.971Z,1011.9
2018-11-12T01:45:10.985Z,1011.85
2018-11-12T01:46:11.003Z,1011.87
2018-11-12T01:47:11.025Z,1011.88
2018-11-12T01:48:11.039Z,1011.92
2018-11-12T01:49:11.064Z,1011.93
2018-11-12T01:50:11.075Z,1011.94
2018-11-12T01:51:11.096Z,1011.97
2018-11-12T01:52:11.111Z,1011.99
2018-11-12T01:54:11.152Z,1012.03
2018-11-12T01:55:11.164Z,1012.02
2018-11-12T01:56:11.180Z,1012.03
2018-11-12T01:57:11.201Z,1012.05
2018-11-12T01:58:11.222Z,1012.03
2018-11-12T01:59:11.235Z,1012
2018-11-12T02:00:11.258Z,1012.01
2018-11-12T02:01:11.271Z,1012.01
2018-11-12T02:02:11.293Z,1012.06
2018-11-12T02:03:11.305Z,1012.02
2018-11-12T02:04:11.324Z,1012.05
2018-11-12T02:05:11.347Z,1012.01
2018-11-12T02:06:11.360Z,1012.01
2018-11-12T02:07:11.381Z,1011.95
2018-11-12T02:08:11.396Z,1011.95
2018-11-12T02:09:11.499Z,1011.86
2018-11-12T02:10:11.431Z,1011.88
2018-11-12T02:11:11.450Z,1011.86
2018-11-12T02:12:11.468Z,1011.92
2018-11-12T02:13:11.494Z,1011.94
2018-11-12T02:14:11.502Z,1011.93
2018-11-12T02:15:11.525Z,1011.95
2018-11-12T02:16:11.539Z,1011.94
2018-11-12T02:17:11.568Z,1011.94
2018-11-12T02:18:11.573Z,1011.89
2018-11-12T02:19:11.596Z,1011.89
2018-11-12T02:20:11.610Z,1011.88
2018-11-12T02:21:11.627Z,1011.86
2018-11-12T02:22:11.645Z,1011.86
2018-11-12T02:23:11.668Z,1011.86
2018-11-12T02:24:11.687Z,1011.88
2018-11-12T02:26:11.720Z,1011.93
2018-11-12T02:27:11.738Z,1011.93
2018-11-12T02:28:11.752Z,1011.85
2018-11-12T02:29:11.811Z,1011.85
2018-11-12T02:30:11.788Z,1011.95
2018-11-12T02:31:11.807Z,1011.93
2018-11-12T02:32:11.831Z,1011.98
2018-11-12T02:33:11.893Z,1012
2018-11-12T02:34:11.865Z,1012.03
2018-11-12T02:35:11.878Z,1012.05
2018-11-12T02:36:11.898Z,1012.04
2018-11-12T02:37:11.919Z,1012.01
2018-11-12T02:38:11.929Z,1012
2018-11-12T02:39:11.948Z,1011.99
2018-11-12T02:40:11.969Z,1011.97
2018-11-12T02:42:12.106Z,1011.94
2018-11-12T02:43:12.017Z,1011.95
2018-11-12T02:44:12.041Z,1011.92
2018-11-12T02:45:12.060Z,1011.9
2018-11-12T02:46:12.076Z,1011.89
2018-11-12T02:47:12.090Z,1011.84
2018-11-12T02:48:12.108Z,1011.93
2018-11-12T02:49:12.129Z,1011.89
2018-11-12T02:50:12.152Z,1011.92
2018-11-12T02:51:12.168Z,1011.91
2018-11-12T02:52:12.178Z,1011.88
2018-11-12T02:53:12.200Z,1011.93
2018-11-12T02:54:12.213Z,1011.95
2018-11-12T02:55:12.234Z,1011.89
2018-11-12T02:56:12.249Z,1011.91
2018-11-12T02:58:12.288Z,1011.85
2018-11-12T02:59:12.301Z,1011.81
2018-11-12T03:00:12.327Z,1011.81
2018-11-12T03:01:12.384Z,1011.8
2018-11-12T03:02:12.359Z,1011.79
2018-11-12T03:03:12.373Z,1011.77
2018-11-12T03:04:12.394Z,1011.76
2018-11-12T03:05:12.411Z,1011.77
2018-11-12T03:06:12.430Z,1011.74
2018-11-12T03:07:12.443Z,1011.81
2018-11-12T03:08:12.464Z,1011.78
2018-11-12T03:09:12.483Z,1011.83
2018-11-12T03:10:12.495Z,1011.82
2018-11-12T03:11:12.515Z,1011.82
2018-11-12T03:12:12.535Z,1011.77
2018-11-12T03:14:12.572Z,1011.84
2018-11-12T03:15:12.589Z,1011.87
2018-11-12T03:16:12.601Z,1011.87
2018-11-12T03:17:12.618Z,1011.92
2018-11-12T03:18:12.637Z,1011.89
2018-11-12T03:19:12.657Z,1011.9
2018-11-12T03:20:12.672Z,1011.9
2018-11-12T03:21:12.695Z,1011.88
2018-11-12T03:22:12.711Z,1011.89
2018-11-12T03:23:12.724Z,1011.86
2018-11-12T03:24:12.746Z,1011.88
2018-11-12T03:25:12.761Z,1011.83
2018-11-12T03:26:12.786Z,1011.83
2018-11-12T03:27:12.800Z,1011.81
2018-11-12T03:29:12.835Z,1011.79
2018-11-12T03:30:12.855Z,1011.77
2018-11-12T03:31:12.869Z,1011.78
2018-11-12T03:32:12.885Z,1011.77
2018-11-12T03:33:12.900Z,1011.78
2018-11-12T03:34:12.923Z,1011.77
2018-11-12T03:35:12.948Z,1011.74
2018-11-12T03:36:12.955Z,1011.68
2018-11-12T03:37:12.990Z,1011.64
2018-11-12T03:38:12.986Z,1011.62
2018-11-12T03:39:13.012Z,1011.62
2018-11-12T03:40:13.027Z,1011.65
2018-11-12T03:41:13.045Z,1011.57
2018-11-12T03:42:13.060Z,1011.61
2018-11-12T03:43:13.080Z,1011.63
2018-11-12T03:44:13.093Z,1011.64
2018-11-12T03:45:13.115Z,1011.66
2018-11-12T03:46:13.132Z,1011.68
2018-11-12T03:47:13.146Z,1011.7
2018-11-12T03:48:13.167Z,1011.66
2018-11-12T03:49:13.181Z,1011.7
2018-11-12T03:50:13.202Z,1011.72
2018-11-12T03:51:13.215Z,1011.72
2018-11-12T03:52:13.244Z,1011.71
2018-11-12T03:53:13.251Z,1011.68
2018-11-12T03:54:13.272Z,1011.71
2018-11-12T03:55:13.289Z,1011.74
2018-11-12T03:56:13.302Z,1011.73
2018-11-12T03:57:13.324Z,1011.7
2018-11-12T03:58:13.349Z,1011.72
2018-11-12T03:59:13.359Z,1011.74
2018-11-12T04:01:13.397Z,1011.73
2018-11-12T04:02:13.407Z,1011.76
2018-11-12T04:03:13.429Z,1011.77
2018-11-12T04:04:13.446Z,1011.74
2018-11-12T04:05:13.460Z,1011.77
2018-11-12T04:06:13.478Z,1011.8
2018-11-12T04:07:13.498Z,1011.8
2018-11-12T04:08:13.516Z,1011.83
2018-11-12T04:09:13.533Z,1011.82
2018-11-12T04:10:13.547Z,1011.86
2018-11-12T04:11:13.573Z,1011.86
2018-11-12T04:12:13.581Z,1011.87
2018-11-12T04:13:13.604Z,1011.9
2018-11-12T04:14:13.620Z,1011.83
2018-11-12T04:15:13.645Z,1011.83
2018-11-12T04:17:13.669Z,1011.83
2018-11-12T04:18:13.690Z,1011.81
2018-11-12T04:19:13.708Z,1011.83
2018-11-12T04:20:13.728Z,1011.86
2018-11-12T04:21:13.739Z,1011.88
2018-11-12T04:22:13.758Z,1011.86
2018-11-12T04:23:13.778Z,1011.83
2018-11-12T04:24:13.790Z,1011.81
2018-11-12T04:25:13.824Z,1011.8
2018-11-12T04:26:13.830Z,1011.8
2018-11-12T04:27:13.842Z,1011.82
2018-11-12T04:28:13.873Z,1011.86
2018-11-12T04:29:13.882Z,1011.95
2018-11-12T04:30:13.895Z,1011.9
2018-11-12T04:31:13.918Z,1011.88
2018-11-12T04:33:13.960Z,1011.86
2018-11-12T04:34:13.979Z,1011.87
2018-11-12T04:35:13.989Z,1011.9
2018-11-12T04:36:14.010Z,1011.88
2018-11-12T04:37:14.024Z,1011.95
2018-11-12T04:38:14.043Z,1011.94
2018-11-12T04:39:14.055Z,1011.94
2018-11-12T04:40:14.074Z,1011.93
2018-11-12T04:41:14.089Z,1011.92
2018-11-12T04:42:14.119Z,1011.93
2018-11-12T04:43:14.127Z,1011.95
2018-11-12T04:44:14.146Z,1011.88
2018-11-12T04:45:14.158Z,1011.89
2018-11-12T04:46:14.177Z,1011.94
2018-11-12T04:47:14.193Z,1011.92
2018-11-12T04:49:14.234Z,1011.88
2018-11-12T04:50:14.248Z,1011.89
2018-11-12T04:51:14.268Z,1011.94
2018-11-12T04:52:14.283Z,1012.01
2018-11-12T04:53:14.303Z,1012.04
2018-11-12T04:54:14.416Z,1011.98
2018-11-12T04:55:14.360Z,1011.97
2018-11-12T04:56:14.352Z,1011.98
2018-11-12T04:57:14.373Z,1012.05
2018-11-12T04:58:14.385Z,1012.01
2018-11-12T04:59:14.439Z,1011.98
2018-11-12T05:00:14.438Z,1012.01
2018-11-12T05:01:14.444Z,1011.99
2018-11-12T05:02:14.457Z,1011.96
2018-11-12T05:04:14.515Z,1011.98
2018-11-12T05:05:14.509Z,1011.93
2018-11-12T05:06:14.531Z,1011.94
2018-11-12T05:07:14.612Z,1011.97
2018-11-12T05:08:14.567Z,1011.97
2018-11-12T05:09:14.585Z,1012
2018-11-12T05:10:14.602Z,1011.95
2018-11-12T05:11:14.615Z,1011.93
2018-11-12T05:12:14.636Z,1011.94
2018-11-12T05:13:14.654Z,1011.91
2018-11-12T05:14:14.667Z,1011.94
2018-11-12T05:15:14.694Z,1011.95
2018-11-12T05:16:14.702Z,1011.99
2018-11-12T05:17:14.723Z,1011.98
2018-11-12T05:18:14.738Z,1011.97
2018-11-12T05:19:14.759Z,1011.94
2018-11-12T05:20:14.777Z,1011.93
2018-11-12T05:21:14.796Z,1011.9
2018-11-12T05:22:14.807Z,1011.94
2018-11-12T05:23:14.828Z,1011.96
2018-11-12T05:24:14.840Z,1011.9
2018-11-12T05:25:14.861Z,1011.91
2018-11-12T05:26:14.877Z,1011.9
2018-11-12T05:27:14.898Z,1011.9
2018-11-12T05:28:14.912Z,1011.92
2018-11-12T05:29:14.934Z,1011.93
2018-11-12T05:30:14.947Z,1011.92
2018-11-12T05:31:14.968Z,1011.9
2018-11-12T05:32:14.982Z,1011.89
2018-11-12T05:33:15.000Z,1011.85
2018-11-12T05:34:15.024Z,1011.84
2018-11-12T05:36:15.055Z,1011.86
2018-11-12T05:37:15.073Z,1011.83
2018-11-12T05:38:15.103Z,1011.86
2018-11-12T05:39:15.104Z,1011.89
2018-11-12T05:40:15.126Z,1011.96
2018-11-12T05:41:15.140Z,1012.03
2018-11-12T05:42:15.160Z,1012.04
2018-11-12T05:43:15.178Z,1012.08
2018-11-12T05:44:15.196Z,1012.08
2018-11-12T05:45:15.208Z,1012.14
2018-11-12T05:46:15.233Z,1012.14
2018-11-12T05:47:15.251Z,1012.21
2018-11-12T05:48:15.264Z,1012.26
2018-11-12T05:49:15.282Z,1012.32
2018-11-12T05:50:15.296Z,1012.3
2018-11-12T05:52:15.333Z,1012.29
2018-11-12T05:53:15.351Z,1012.3
2018-11-12T05:54:15.364Z,1012.29
2018-11-12T05:55:15.388Z,1012.31
2018-11-12T05:56:15.400Z,1012.31
2018-11-12T05:57:15.424Z,1012.32
2018-11-12T05:58:15.440Z,1012.37
2018-11-12T05:59:15.457Z,1012.34
2018-11-12T06:00:15.473Z,1012.38
2018-11-12T06:01:15.488Z,1012.42
2018-11-12T06:02:15.509Z,1012.44
2018-11-12T06:03:15.527Z,1012.5
2018-11-12T06:04:15.543Z,1012.52
2018-11-12T06:05:15.561Z,1012.5
2018-11-12T06:06:15.574Z,1012.46
2018-11-12T06:08:15.614Z,1012.4
2018-11-12T06:09:15.626Z,1012.4
2018-11-12T06:10:15.649Z,1012.44
2018-11-12T06:11:15.661Z,1012.43
2018-11-12T06:12:15.683Z,1012.47
2018-11-12T06:13:15.698Z,1012.5
2018-11-12T06:14:15.719Z,1012.5
2018-11-12T06:15:15.734Z,1012.52
2018-11-12T06:16:15.753Z,1012.53
2018-11-12T06:17:15.767Z,1012.49
2018-11-12T06:18:15.788Z,1012.54
2018-11-12T06:19:15.801Z,1012.56
2018-11-12T06:20:15.823Z,1012.59
2018-11-12T06:21:15.837Z,1012.61
2018-11-12T06:22:15.857Z,1012.58
2018-11-12T06:24:15.892Z,1012.6
2018-11-12T06:25:15.911Z,1012.56
2018-11-12T06:26:15.927Z,1012.52
2018-11-12T06:27:15.945Z,1012.57
2018-11-12T06:28:15.960Z,1012.6
2018-11-12T06:29:15.979Z,1012.61
2018-11-12T06:30:15.992Z,1012.6
2018-11-12T06:31:16.133Z,1012.65
2018-11-12T06:32:16.029Z,1012.6
2018-11-12T06:33:16.048Z,1012.59
2018-11-12T06:34:16.067Z,1012.53
2018-11-12T06:35:16.086Z,1012.54
2018-11-12T06:36:16.099Z,1012.52
2018-11-12T06:37:16.116Z,1012.56
2018-11-12T06:39:16.154Z,1012.6
2018-11-12T06:40:16.172Z,1012.55
2018-11-12T06:41:16.186Z,1012.63
2018-11-12T06:42:16.208Z,1012.63
2018-11-12T06:43:16.388Z,1012.65
2018-11-12T06:44:16.243Z,1012.62
2018-11-12T06:45:16.259Z,1012.63
2018-11-12T06:46:16.278Z,1012.61
2018-11-12T06:47:16.291Z,1012.59
2018-11-12T06:48:16.313Z,1012.58
2018-11-12T06:49:16.327Z,1012.57
2018-11-12T06:50:16.394Z,1012.61
2018-11-12T06:51:16.366Z,1012.69
2018-11-12T06:52:16.380Z,1012.74
2018-11-12T06:53:16.437Z,1012.76
2018-11-12T06:54:16.415Z,1012.75
2018-11-12T06:55:16.436Z,1012.73
2018-11-12T06:56:16.451Z,1012.76
2018-11-12T06:57:16.472Z,1012.7
2018-11-12T06:58:16.490Z,1012.75
2018-11-12T06:59:16.503Z,1012.72
2018-11-12T07:00:16.526Z,1012.7
2018-11-12T07:01:16.538Z,1012.7
2018-11-12T07:02:16.562Z,1012.72
2018-11-12T07:03:16.574Z,1012.72
2018-11-12T07:04:16.596Z,1012.76
2018-11-12T07:05:16.614Z,1012.72
2018-11-12T07:06:16.631Z,1012.67
2018-11-12T07:07:16.649Z,1012.72
2018-11-12T07:08:16.662Z,1012.73
2018-11-12T07:09:16.687Z,1012.74
2018-11-12T07:11:16.721Z,1012.74
2018-11-12T07:12:16.739Z,1012.75
2018-11-12T07:13:16.828Z,1012.75
2018-11-12T07:14:16.777Z,1012.81
2018-11-12T07:15:16.797Z,1012.84
2018-11-12T07:16:16.807Z,1012.78
2018-11-12T07:17:16.828Z,1012.81
2018-11-12T07:18:16.843Z,1012.81
2018-11-12T07:19:16.868Z,1012.76
2018-11-12T07:20:16.877Z,1012.68
2018-11-12T07:21:16.900Z,1012.67
2018-11-12T07:22:16.922Z,1012.68
2018-11-12T07:23:17.031Z,1012.72
2018-11-12T07:24:16.953Z,1012.72
2018-11-12T07:25:17.022Z,1012.69
2018-11-12T07:27:17.005Z,1012.6
2018-11-12T07:28:17.127Z,1012.57
2018-11-12T07:29:17.050Z,1012.48
2018-11-12T07:30:17.065Z,1012.49
2018-11-12T07:31:17.139Z,1012.48
2018-11-12T07:32:17.100Z,1012.49
2018-11-12T07:33:17.119Z,1012.54
2018-11-12T07:34:17.134Z,1012.52
2018-11-12T07:35:17.157Z,1012.52
2018-11-12T07:36:17.175Z,1012.57
2018-11-12T07:37:17.189Z,1012.58
2018-11-12T07:38:17.212Z,1012.63
2018-11-12T07:39:17.227Z,1012.71
2018-11-12T07:40:17.245Z,1012.71
2018-11-12T07:41:17.269Z,1012.76
2018-11-12T07:43:17.304Z,1012.8
2018-11-12T07:44:17.326Z,1012.8
2018-11-12T07:45:17.345Z,1012.81
2018-11-12T07:46:17.363Z,1012.79
2018-11-12T07:47:17.377Z,1012.87
2018-11-12T07:48:17.401Z,1012.87
2018-11-12T07:49:17.416Z,1012.92
2018-11-12T07:50:17.435Z,1013
2018-11-12T07:51:17.530Z,1013.03
2018-11-12T07:52:17.477Z,1013
2018-11-12T07:53:17.496Z,1013.03
2018-11-12T07:54:17.517Z,1013.04
2018-11-12T07:55:17.541Z,1013.08
2018-11-12T07:56:17.639Z,1013.12
2018-11-12T07:57:17.574Z,1013.17
2018-11-12T07:59:17.613Z,1013.11
2018-11-12T08:00:17.629Z,1013.16
2018-11-12T08:01:17.644Z,1013.19
2018-11-12T08:02:17.671Z,1013.19
2018-11-12T08:03:17.766Z,1013.24
2018-11-12T08:04:17.699Z,1013.18
2018-11-12T08:05:17.721Z,1013.16
2018-11-12T08:06:17.741Z,1013.14
2018-11-12T08:07:17.758Z,1013.09
2018-11-12T08:08:17.780Z,1013.05
2018-11-12T08:09:17.936Z,1013.05
2018-11-12T08:10:17.819Z,1013.06
2018-11-12T08:11:17.838Z,1013.07
2018-11-12T08:12:17.859Z,1013.05
2018-11-12T08:14:17.907Z,1013.12
2018-11-12T08:15:17.914Z,1013.08
2018-11-12T08:16:17.929Z,1013.14
2018-11-12T08:17:17.958Z,1013.17
2018-11-12T08:18:17.972Z,1013.18
2018-11-12T08:19:17.986Z,1013.19
2018-11-12T08:20:18.006Z,1013.27
2018-11-12T08:21:18.029Z,1013.25
2018-11-12T08:22:18.049Z,1013.23
2018-11-12T08:23:18.062Z,1013.24
2018-11-12T08:24:18.304Z,1013.3
2018-11-12T08:25:18.102Z,1013.32
2018-11-12T08:26:18.125Z,1013.35
2018-11-12T08:27:18.153Z,1013.39
2018-11-12T08:28:18.165Z,1013.35
2018-11-12T08:29:18.178Z,1013.34
2018-11-12T08:30:18.249Z,1013.28
2018-11-12T08:31:18.221Z,1013.25
2018-11-12T08:32:18.241Z,1013.2
2018-11-12T08:33:18.254Z,1013.15
2018-11-12T08:34:18.279Z,1013.16
2018-11-12T08:35:18.293Z,1013.12
2018-11-12T08:36:18.331Z,1013.14
2018-11-12T08:37:18.330Z,1013.14
2018-11-12T08:38:18.354Z,1013.11
2018-11-12T08:39:18.498Z,1013.09
2018-11-12T08:40:18.434Z,1013.07
2018-11-12T08:41:18.411Z,1013.11
2018-11-12T08:42:18.430Z,1013.1
2018-11-12T08:43:18.446Z,1013.12
2018-11-12T08:44:18.463Z,1013.09
2018-11-12T08:46:18.502Z,1013.15
2018-11-12T08:47:18.526Z,1013.16
2018-11-12T08:48:18.575Z,1013.16
2018-11-12T08:49:18.615Z,1013.15
2018-11-12T08:50:18.580Z,1013.17
2018-11-12T08:51:18.598Z,1013.15
2018-11-12T08:52:18.662Z,1013.2
2018-11-12T08:53:18.636Z,1013.2
2018-11-12T08:54:18.754Z,1013.16
2018-11-12T08:55:18.704Z,1013.15
2018-11-12T08:56:18.697Z,1013.2
2018-11-12T08:57:18.712Z,1013.15
2018-11-12T08:58:19.505Z,1013.15
2018-11-12T08:59:18.901Z,1013.15
2018-11-12T09:00:18.773Z,1013.11
2018-11-12T09:02:18.813Z,1013.16
2018-11-12T09:03:18.831Z,1013.2
2018-11-12T09:04:18.849Z,1013.23
2018-11-12T09:05:18.869Z,1013.26
2018-11-12T09:06:18.888Z,1013.3
2018-11-12T09:07:19.077Z,1013.27
2018-11-12T09:08:18.922Z,1013.34
2018-11-12T09:09:18.947Z,1013.39
2018-11-12T09:10:19.184Z,1013.34
2018-11-12T09:11:18.983Z,1013.34
2018-11-12T09:12:18.999Z,1013.33
2018-11-12T09:13:19.022Z,1013.32
2018-11-12T09:14:19.036Z,1013.24
2018-11-12T09:15:19.060Z,1013.23
2018-11-12T09:16:19.075Z,1013.17
2018-11-12T09:18:19.118Z,1013.2
2018-11-12T09:19:19.136Z,1013.21
2018-11-12T09:20:19.152Z,1013.23
2018-11-12T09:21:19.172Z,1013.22
2018-11-12T09:22:19.194Z,1013.14
2018-11-12T09:23:19.209Z,1013.13
2018-11-12T09:24:19.330Z,1013.14
2018-11-12T09:25:19.247Z,1013.2
2018-11-12T09:26:19.272Z,1013.17
2018-11-12T09:27:19.287Z,1013.23
2018-11-12T09:28:19.316Z,1013.24
2018-11-12T09:29:19.432Z,1013.27
2018-11-12T09:30:19.355Z,1013.33
2018-11-12T09:31:20.878Z,1013.38
2018-11-12T09:32:19.388Z,1013.4
2018-11-12T09:34:19.427Z,1013.45
2018-11-12T09:35:19.447Z,1013.43
2018-11-12T09:36:19.466Z,1013.44
2018-11-12T09:37:19.524Z,1013.42
2018-11-12T09:39:19.524Z,1013.44
2018-11-12T09:40:19.540Z,1013.39
2018-11-12T09:41:19.579Z,1013.3
2018-11-12T09:42:19.590Z,1013.32
2018-11-12T09:43:19.650Z,1013.31
2018-11-12T09:44:19.628Z,1013.34
2018-11-12T09:45:19.645Z,1013.33
2018-11-12T09:46:19.659Z,1013.3
2018-11-12T09:47:19.680Z,1013.31
2018-11-12T09:49:19.718Z,1013.3
2018-11-12T09:50:19.738Z,1013.27
2018-11-12T09:51:19.761Z,1013.29
2018-11-12T09:52:19.782Z,1013.31
2018-11-12T09:53:19.805Z,1013.33
2018-11-12T09:54:19.975Z,1013.33
2018-11-12T09:55:19.844Z,1013.3
2018-11-12T09:56:19.857Z,1013.27
2018-11-12T09:57:19.881Z,1013.22
2018-11-12T09:58:19.896Z,1013.24
2018-11-12T09:59:19.974Z,1013.24
2018-11-12T10:00:20.155Z,1013.17
2018-11-12T10:01:20.417Z,1013.18
2018-11-12T10:02:20.540Z,1013.11
2018-11-12T10:03:21.157Z,1013.14
2018-11-12T10:04:21.388Z,1013.15
2018-11-12T10:05:21.328Z,1013.1
2018-11-12T10:06:21.676Z,1013.06
2018-11-12T10:07:21.817Z,1013.03
2018-11-12T10:08:21.839Z,1013.03
2018-11-12T10:09:21.692Z,1013.08
2018-11-12T10:10:22.196Z,1013.08
2018-11-12T10:11:23.256Z,1013.07
2018-11-12T10:12:22.262Z,1013.09
2018-11-12T10:13:22.211Z,1013.05
2018-11-12T10:14:22.972Z,1013.02
2018-11-12T10:15:23.574Z,1013.02
2018-11-12T10:16:22.895Z,1012.98
2018-11-12T10:17:24.165Z,1012.94
2018-11-12T10:18:20.305Z,1012.91
2018-11-12T10:19:20.325Z,1012.91
2018-11-12T10:21:20.369Z,1012.9
2018-11-12T10:22:20.386Z,1012.86
2018-11-12T10:23:20.410Z,1012.87
2018-11-12T10:24:20.426Z,1012.87
2018-11-12T10:25:20.454Z,1012.83
2018-11-12T10:26:20.501Z,1012.81
2018-11-12T10:27:20.504Z,1012.84
2018-11-12T10:28:20.509Z,1012.86
2018-11-12T10:29:20.533Z,1012.84
2018-11-12T10:30:20.550Z,1012.91
2018-11-12T10:31:20.577Z,1012.94
2018-11-12T10:32:20.596Z,1012.97
2018-11-12T10:33:20.613Z,1012.92
2018-11-12T10:34:20.645Z,1012.95
2018-11-12T10:35:20.654Z,1012.99
2018-11-12T10:37:20.700Z,1012.94
2018-11-12T10:38:20.723Z,1012.93
2018-11-12T10:39:20.743Z,1012.88
2018-11-12T10:40:20.757Z,1012.93
2018-11-12T10:41:20.787Z,1012.92
2018-11-12T10:42:20.798Z,1012.88
2018-11-12T10:43:20.823Z,1012.83
2018-11-12T10:44:20.845Z,1012.85
2018-11-12T10:45:20.865Z,1012.8
2018-11-12T10:46:20.886Z,1012.83
2018-11-12T10:47:20.903Z,1012.81
2018-11-12T10:48:21.013Z,1012.81
2018-11-12T10:49:20.948Z,1012.81
2018-11-12T10:50:20.974Z,1012.8
2018-11-12T10:51:21.015Z,1012.81
2018-11-12T10:53:21.027Z,1012.82
2018-11-12T10:54:21.194Z,1012.8
2018-11-12T10:55:21.365Z,1012.77
2018-11-12T10:56:21.193Z,1012.72
2018-11-12T10:57:21.110Z,1012.78
2018-11-12T10:58:21.169Z,1012.78
2018-11-12T10:59:21.152Z,1012.74
2018-11-12T11:00:21.210Z,1012.77
2018-11-12T11:01:21.197Z,1012.72
2018-11-12T11:02:21.217Z,1012.74
2018-11-12T11:03:21.238Z,1012.73
2018-11-12T11:04:21.254Z,1012.75
2018-11-12T11:05:21.280Z,1012.67
2018-11-12T11:06:21.297Z,1012.68
2018-11-12T11:07:21.321Z,1012.7
2018-11-12T11:09:21.363Z,1012.67
2018-11-12T11:10:21.384Z,1012.64
2018-11-12T11:11:21.401Z,1012.59
2018-11-12T11:12:21.428Z,1012.54
2018-11-12T11:13:21.442Z,1012.6
2018-11-12T11:14:21.466Z,1012.61
2018-11-12T11:15:21.521Z,1012.58
2018-11-12T11:16:21.508Z,1012.63
2018-11-12T11:17:21.525Z,1012.61
2018-11-12T11:18:21.549Z,1012.65
2018-11-12T11:19:21.566Z,1012.67
2018-11-12T11:20:21.591Z,1012.65
2018-11-12T11:21:21.656Z,1012.62
2018-11-12T11:22:21.632Z,1012.59
2018-11-12T11:24:21.671Z,1012.51
2018-11-12T11:25:21.695Z,1012.54
2018-11-12T11:26:21.711Z,1012.51
2018-11-12T11:27:21.737Z,1012.54
2018-11-12T11:28:21.753Z,1012.5
2018-11-12T11:29:21.777Z,1012.49
2018-11-12T11:30:21.793Z,1012.45
2018-11-12T11:31:21.819Z,1012.47
2018-11-12T11:32:21.842Z,1012.45
2018-11-12T11:33:21.855Z,1012.39
2018-11-12T11:34:21.876Z,1012.35
2018-11-12T11:35:21.901Z,1012.36
2018-11-12T11:36:21.924Z,1012.37
2018-11-12T11:37:21.942Z,1012.36
2018-11-12T11:38:21.959Z,1012.37
2018-11-12T11:39:21.984Z,1012.39
2018-11-12T11:40:22.063Z,1012.38
2018-11-12T11:41:22.020Z,1012.41
2018-11-12T11:42:22.045Z,1012.4
2018-11-12T11:43:22.065Z,1012.37
2018-11-12T11:44:22.082Z,1012.43
2018-11-12T11:45:22.106Z,1012.47
2018-11-12T11:46:22.123Z,1012.48
2018-11-12T11:47:22.261Z,1012.49
2018-11-12T11:48:22.164Z,1012.55
2018-11-12T11:49:22.188Z,1012.53
2018-11-12T11:50:22.353Z,1012.53
2018-11-12T11:51:22.225Z,1012.51
2018-11-12T11:52:22.250Z,1012.52
2018-11-12T11:53:22.271Z,1012.46
2018-11-12T11:54:22.395Z,1012.47
2018-11-12T11:56:22.436Z,1012.36
2018-11-12T11:57:22.448Z,1012.34
2018-11-12T11:58:22.368Z,1012.29
2018-11-12T11:59:22.393Z,1012.31
2018-11-12T12:00:22.414Z,1012.28
2018-11-12T12:01:22.435Z,1012.24
2018-11-12T12:02:22.502Z,1012.25
2018-11-12T12:03:22.476Z,1012.21
2018-11-12T12:04:22.491Z,1012.22
2018-11-12T12:05:22.520Z,1012.24
2018-11-12T12:06:22.532Z,1012.28
2018-11-12T12:07:22.558Z,1012.22
2018-11-12T12:08:22.579Z,1012.18
2018-11-12T12:09:22.847Z,1012.17
2018-11-12T12:10:22.619Z,1012.17
2018-11-12T12:12:22.660Z,1012.23
2018-11-12T12:13:22.757Z,1012.2
2018-11-12T12:14:22.697Z,1012.24
2018-11-12T12:15:22.718Z,1012.27
2018-11-12T12:16:22.742Z,1012.28
2018-11-12T12:17:22.760Z,1012.24
2018-11-12T12:18:22.849Z,1012.26
2018-11-12T12:19:22.812Z,1012.2
2018-11-12T12:20:22.822Z,1012.19
2018-11-12T12:21:22.842Z,1012.22
2018-11-12T12:22:22.863Z,1012.19
2018-11-12T12:23:22.890Z,1012.21
2018-11-12T12:24:23.013Z,1012.16
2018-11-12T12:25:22.978Z,1012.23
2018-11-12T12:26:22.946Z,1012.21
2018-11-12T12:28:22.987Z,1012.21
2018-11-12T12:29:23.008Z,1012.29
2018-11-12T12:30:23.034Z,1012.33
2018-11-12T12:31:23.054Z,1012.23
2018-11-12T12:32:23.076Z,1012.2
2018-11-12T12:33:23.093Z,1012.17
2018-11-12T12:34:23.120Z,1012.15
2018-11-12T12:35:23.134Z,1012.13
2018-11-12T12:36:23.268Z,1012.16
2018-11-12T12:37:23.182Z,1012.11
2018-11-12T12:38:23.202Z,1012.14
2018-11-12T12:39:23.219Z,1012.1
2018-11-12T12:40:23.244Z,1012.07
2018-11-12T12:41:23.262Z,1012.06
2018-11-12T12:42:23.287Z,1012.11
2018-11-12T12:44:23.515Z,1012.09
2018-11-12T12:45:23.541Z,1012.08
2018-11-12T12:46:23.367Z,1012.11
2018-11-12T12:47:23.392Z,1012.05
2018-11-12T12:48:23.413Z,1012.06
2018-11-12T12:49:23.442Z,1012.01
2018-11-12T12:50:23.451Z,1012.04